In Rescue
 
Open Full Screen Window  High Contrast Mode
Wind Gusting 00 knots
06
August 09, 2020 6:39 PM EDT
Weather Information
Wind Direction
  200 °
Wind Speed
  06 kt (7 mph)
Wind Gust
  00 kt (0 mph)
Altimeter
29.99 in
Visibility
10 SM
Temperature
30° C
86° F
Dewpoint
21° C
70° F
Humidity
59%
Sky Condition
Clear
VFR

METAR KRNP 092239Z AUTO 20006KT 10SM CLR 30/21 A2999 RMK AO2 T03000207

FAA Disclaimer: The data displayed is for advisory purposes only and is not to be used for flight planning or operations.